Time;durP1;ratioP1;P1;durP2;ratioP2;P2;SDS_P1;SDS_P2;PMS_P1;PMS_P2;Temp;Humidity;BMP_temperature;BMP_pressure;BME280_temperature;BME280_humidity;BME280_pressure;Samples;Min_cycle;Max_cycle;Signal;HPM_P1;HPM_P2
2022/03/12 00:01:40;;;;;;;11.38;5.78;;;9.60;45.50;;;;;;5062057;28;20056;-79
2022/03/12 00:04:06;;;;;;;9.98;5.35;;;9.50;45.80;;;;;;5043893;28;20488;-78
2022/03/12 00:06:32;;;;;;;10.60;5.15;;;9.50;45.80;;;;;;5060511;28;20025;-78
2022/03/12 00:08:58;;;;;;;8.75;5.25;;;9.50;45.90;;;;;;5041794;28;20021;-75
2022/03/12 00:11:30;;;;;;;13.52;6.00;;;9.50;45.40;;;;;;5059084;28;20041;-79
2022/03/12 00:14:00;;;;;;;13.05;5.70;;;9.60;45.60;;;;;;5041533;28;20043;-75
2022/03/12 00:16:26;;;;;;;11.10;5.53;;;9.50;46.00;;;;;;5060698;28;20040;-77
2022/03/12 00:18:58;;;;;;;8.07;5.13;;;9.50;45.70;;;;;;5058842;28;20045;-76
2022/03/12 00:21:24;;;;;;;8.43;5.68;;;9.50;45.80;;;;;;5042231;28;20079;-78
2022/03/12 00:23:53;;;;;;;10.88;5.53;;;9.50;45.80;;;;;;5059126;28;20060;-79
2022/03/12 00:26:20;;;;;;;12.43;6.07;;;9.60;45.90;;;;;;5061579;28;20017;-78
2022/03/12 00:28:46;;;;;;;9.38;5.18;;;9.50;45.80;;;;;;5059596;28;20021;-75
2022/03/12 00:31:12;;;;;;;7.80;5.15;;;9.50;46.00;;;;;;5058937;28;20105;-78
2022/03/12 00:33:38;;;;;;;11.73;5.68;;;9.60;45.70;;;;;;5060037;28;20069;-79
2022/03/12 00:36:04;;;;;;;10.57;5.22;;;9.60;45.40;;;;;;5043143;28;20028;-78
2022/03/12 00:38:29;;;;;;;12.38;5.53;;;9.60;45.70;;;;;;5062154;28;20095;-79
2022/03/12 00:40:55;;;;;;;8.07;5.10;;;9.50;46.00;;;;;;5059917;28;20025;-79
2022/03/12 00:43:21;;;;;;;10.55;5.57;;;9.50;45.80;;;;;;5040824;28;20041;-77
2022/03/12 00:45:48;;;;;;;9.70;5.55;;;9.50;46.50;;;;;;5041927;28;20025;-78
2022/03/12 00:48:14;;;;;;;7.95;4.95;;;9.50;46.10;;;;;;5046573;28;20022;-76
2022/03/12 00:50:40;;;;;;;8.93;4.63;;;9.40;45.80;;;;;;5051233;28;20036;-77
2022/03/12 00:53:05;;;;;;;9.60;5.65;;;9.50;46.00;;;;;;5049872;28;20095;-77
2022/03/12 00:55:32;;;;;;;10.70;5.20;;;9.40;46.10;;;;;;5041999;28;20030;-77
2022/03/12 00:57:58;;;;;;;11.20;5.55;;;9.40;46.00;;;;;;5040964;28;20018;-75
2022/03/12 01:00:25;;;;;;;11.68;5.95;;;9.40;46.10;;;;;;5040608;28;20021;-78
2022/03/12 01:02:51;;;;;;;8.20;4.68;;;9.40;46.20;;;;;;5024288;28;20063;-79
2022/03/12 01:05:20;;;;;;;10.00;5.72;;;9.40;46.20;;;;;;5041662;28;20063;-79
2022/03/12 01:07:46;;;;;;;9.70;5.65;;;9.40;46.30;;;;;;5023399;28;20115;-78
2022/03/12 01:10:13;;;;;;;9.10;5.82;;;9.40;46.20;;;;;;5022800;28;20481;-79
2022/03/12 01:12:39;;;;;;;7.88;5.28;;;9.40;46.20;;;;;;5022584;28;20021;-78
2022/03/12 01:15:06;;;;;;;9.30;5.75;;;9.40;46.20;;;;;;5040641;28;20022;-77
2022/03/12 01:17:33;;;;;;;11.80;5.10;;;9.40;46.60;;;;;;5023004;28;20056;-78
2022/03/12 01:20:00;;;;;;;11.23;6.30;;;9.30;46.60;;;;;;5039505;28;20029;-77
2022/03/12 01:22:35;;;;;;;11.23;5.30;;;9.30;46.60;;;;;;5020433;28;20103;-78
2022/03/12 01:25:02;;;;;;;10.80;5.72;;;9.30;46.60;;;;;;5036822;28;20040;-77
2022/03/12 01:27:27;;;;;;;7.72;5.40;;;9.30;46.60;;;;;;5037285;28;20116;-77
2022/03/12 01:29:54;;;;;;;12.43;5.78;;;9.30;46.70;;;;;;5037940;28;20289;-79
2022/03/12 01:32:20;;;;;;;9.48;5.28;;;9.30;46.90;;;;;;5038101;28;20052;-77
2022/03/12 01:34:45;;;;;;;9.13;5.78;;;9.40;46.70;;;;;;5039085;28;20025;-79
2022/03/12 01:37:12;;;;;;;12.98;5.50;;;9.40;46.70;;;;;;5038689;28;20026;-79
2022/03/12 01:39:37;;;;;;;11.15;6.38;;;9.30;47.20;;;;;;5037613;28;20100;-79
2022/03/12 01:42:07;;;;;;;11.00;5.60;;;9.30;47.10;;;;;;5038370;28;20099;-78
2022/03/12 01:44:33;;;;;;;8.43;5.18;;;9.30;47.30;;;;;;5052377;28;20055;-76
2022/03/12 01:47:05;;;;;;;10.75;5.55;;;9.20;47.30;;;;;;5057970;28;20025;-76
2022/03/12 01:49:31;;;;;;;12.35;6.22;;;9.20;47.80;;;;;;5057867;28;20032;-75
2022/03/12 01:51:56;;;;;;;10.65;6.10;;;9.20;47.10;;;;;;5059447;28;20028;-79
2022/03/12 01:54:25;;;;;;;13.52;6.13;;;9.20;47.40;;;;;;5059816;28;20098;-77
2022/03/12 01:56:53;;;;;;;12.35;5.95;;;9.20;47.10;;;;;;5057734;28;20067;-77
2022/03/12 01:59:20;;;;;;;9.07;5.38;;;9.20;47.20;;;;;;5058092;28;20034;-77
2022/03/12 02:01:51;;;;;;;11.23;6.00;;;9.20;47.50;;;;;;5057570;28;20035;-79
2022/03/12 02:04:19;;;;;;;15.40;6.53;;;9.10;47.80;;;;;;5041128;28;20041;-79
2022/03/12 02:06:46;;;;;;;12.52;5.97;;;9.10;47.40;;;;;;5059200;28;20061;-78
2022/03/12 02:09:15;;;;;;;13.43;6.32;;;9.10;47.30;;;;;;5060211;28;20021;-78
2022/03/12 02:11:43;;;;;;;10.00;5.90;;;9.10;47.30;;;;;;5056185;28;20036;-77
2022/03/12 02:14:12;;;;;;;9.95;5.47;;;9.10;47.60;;;;;;5058408;28;20052;-78
2022/03/12 02:16:44;;;;;;;8.18;5.47;;;9.10;47.40;;;;;;5040801;28;20151;-79
2022/03/12 02:19:09;;;;;;;11.07;6.38;;;9.10;48.70;;;;;;5042070;28;20032;-77
2022/03/12 02:21:40;;;;;;;10.52;6.35;;;9.00;48.00;;;;;;5041254;28;20465;-80
2022/03/12 02:24:11;;;;;;;7.60;5.60;;;9.00;48.20;;;;;;5060279;28;20025;-79
2022/03/12 02:26:38;;;;;;;10.13;5.78;;;9.00;48.00;;;;;;5061456;28;20021;-77
2022/03/12 02:29:08;;;;;;;10.73;5.57;;;9.00;48.30;;;;;;5042953;28;20017;-78
2022/03/12 02:31:34;;;;;;;13.23;5.97;;;9.00;49.00;;;;;;5059307;28;20043;-75
2022/03/12 02:34:02;;;;;;;11.02;6.22;;;9.00;48.50;;;;;;5042481;28;20025;-79
2022/03/12 02:36:29;;;;;;;10.27;5.90;;;8.90;49.00;;;;;;5041933;28;20017;-77
2022/03/12 02:38:56;;;;;;;12.20;5.60;;;8.90;48.80;;;;;;5059285;28;20449;-78
2022/03/12 02:41:23;;;;;;;10.30;6.43;;;8.90;48.70;;;;;;5060367;28;20028;-77
2022/03/12 02:43:50;;;;;;;11.15;6.13;;;8.90;49.20;;;;;;5038123;28;20021;-79
2022/03/12 02:46:16;;;;;;;13.45;5.75;;;8.90;49.10;;;;;;5043503;28;20021;-80
2022/03/12 02:48:49;;;;;;;9.93;5.82;;;8.80;49.40;;;;;;5043872;28;20029;-79
2022/03/12 02:51:15;;;;;;;13.65;6.00;;;8.80;49.40;;;;;;5025335;28;20018;-79
2022/03/12 02:53:41;;;;;;;11.43;6.80;;;8.90;49.40;;;;;;5042392;28;20030;-77
2022/03/12 02:56:07;;;;;;;10.93;6.82;;;9.00;49.50;;;;;;5024372;28;20018;-76
2022/03/12 02:58:33;;;;;;;14.48;6.65;;;9.00;49.80;;;;;;5024455;28;20025;-78
2022/03/12 03:00:58;;;;;;;10.13;5.85;;;8.90;50.00;;;;;;5043018;28;20072;-76
2022/03/12 03:03:24;;;;;;;11.85;5.95;;;9.00;49.80;;;;;;5025459;28;20033;-78
2022/03/12 03:05:54;;;;;;;12.82;6.20;;;9.00;49.70;;;;;;5025140;28;20025;-79
2022/03/12 03:08:21;;;;;;;15.30;6.18;;;9.10;49.80;;;;;;5043207;28;20495;-79
2022/03/12 03:10:50;;;;;;;13.00;6.55;;;9.00;50.20;;;;;;5042395;28;20080;-79
2022/03/12 03:13:16;;;;;;;11.75;6.28;;;9.00;50.20;;;;;;5042207;28;20041;-79
2022/03/12 03:15:46;;;;;;;11.43;6.32;;;9.00;50.30;;;;;;5043018;28;20048;-77
2022/03/12 03:18:13;;;;;;;13.73;6.38;;;9.00;50.40;;;;;;5041598;28;20026;-79
2022/03/12 03:20:42;;;;;;;13.93;6.25;;;9.00;50.40;;;;;;5042105;28;20053;-79
2022/03/12 03:23:09;;;;;;;8.18;5.65;;;9.00;50.40;;;;;;5041787;28;20599;-77
2022/03/12 03:25:35;;;;;;;10.82;6.47;;;9.00;50.50;;;;;;5024305;28;20144;-78
2022/03/12 03:28:01;;;;;;;9.65;5.95;;;9.00;50.70;;;;;;5042484;28;20037;-77
2022/03/12 03:30:37;;;;;;;12.35;6.22;;;8.90;50.80;;;;;;5041218;28;20558;-77
2022/03/12 03:33:06;;;;;;;9.73;6.50;;;8.90;50.90;;;;;;5023974;28;20061;-79
2022/03/12 03:35:32;;;;;;;13.75;7.13;;;8.90;51.20;;;;;;5044672;28;20026;-79
2022/03/12 03:37:58;;;;;;;11.95;6.57;;;8.80;51.20;;;;;;5022477;28;20083;-77
2022/03/12 03:40:24;;;;;;;10.23;6.10;;;8.80;51.10;;;;;;5023805;28;20041;-79
2022/03/12 03:42:50;;;;;;;11.75;6.70;;;8.80;51.20;;;;;;5023685;28;20038;-75
2022/03/12 03:45:27;;;;;;;12.85;6.40;;;8.80;51.30;;;;;;5024143;28;20112;-79
2022/03/12 03:47:55;;;;;;;11.43;6.22;;;8.70;51.80;;;;;;5041750;28;20109;-80
2022/03/12 03:50:25;;;;;;;14.27;6.60;;;8.70;52.10;;;;;;5023493;28;20026;-76
2022/03/12 03:52:50;;;;;;;10.50;6.10;;;8.60;52.30;;;;;;5042339;28;20025;-76
2022/03/12 03:55:16;;;;;;;8.68;5.80;;;8.50;53.20;;;;;;5042728;28;20022;-77
2022/03/12 03:57:42;;;;;;;12.75;6.10;;;8.50;53.10;;;;;;5041302;28;20443;-78
2022/03/12 04:00:08;;;;;;;9.75;5.88;;;8.50;53.10;;;;;;5039286;28;20048;-78
2022/03/12 04:02:33;;;;;;;11.75;6.50;;;8.50;53.00;;;;;;5040612;28;20029;-79
2022/03/12 04:04:59;;;;;;;12.68;6.38;;;8.50;53.20;;;;;;5024376;28;20036;-79
2022/03/12 04:07:25;;;;;;;10.25;5.97;;;8.50;53.40;;;;;;5024004;28;20033;-78
2022/03/12 04:09:51;;;;;;;11.85;6.40;;;8.50;53.30;;;;;;5043389;28;20065;-77
2022/03/12 04:12:17;;;;;;;12.38;6.70;;;8.50;53.50;;;;;;5043701;28;20029;-77
2022/03/12 04:14:43;;;;;;;13.25;6.70;;;8.50;53.60;;;;;;5043758;28;20056;-78
2022/03/12 04:17:09;;;;;;;11.10;6.53;;;8.40;54.00;;;;;;5023191;28;20029;-77
2022/03/12 04:19:34;;;;;;;10.88;6.45;;;8.40;54.00;;;;;;5042270;28;20096;-78
2022/03/12 04:22:01;;;;;;;10.80;6.20;;;8.40;54.40;;;;;;5041137;28;20032;-78
2022/03/12 04:24:27;;;;;;;10.63;6.28;;;8.40;54.50;;;;;;5041957;28;20017;-79
2022/03/12 04:26:52;;;;;;;11.55;6.95;;;8.40;54.90;;;;;;5042276;28;20025;-79
2022/03/12 04:29:19;;;;;;;11.30;6.13;;;8.40;55.20;;;;;;5042046;28;20060;-79
2022/03/12 04:31:48;;;;;;;11.15;5.88;;;8.30;55.30;;;;;;5040801;28;20018;-77
2022/03/12 04:34:14;;;;;;;14.32;6.88;;;8.30;55.30;;;;;;5022356;28;20072;-79
2022/03/12 04:36:45;;;;;;;10.68;6.57;;;8.40;55.50;;;;;;5021390;28;20048;-76
2022/03/12 04:39:11;;;;;;;13.57;6.55;;;8.40;55.30;;;;;;5021653;28;20465;-77
2022/03/12 04:41:39;;;;;;;11.35;6.30;;;8.40;55.80;;;;;;5039052;28;20041;-78
2022/03/12 04:44:06;;;;;;;12.35;7.07;;;8.40;55.80;;;;;;5050331;28;20035;-77
2022/03/12 04:46:33;;;;;;;11.43;6.22;;;8.40;55.80;;;;;;5061143;28;20048;-77
2022/03/12 04:48:59;;;;;;;11.73;6.65;;;8.40;56.10;;;;;;5057964;28;20368;-78
2022/03/12 04:51:24;;;;;;;12.60;7.13;;;8.40;56.00;;;;;;5042984;28;20029;-77
2022/03/12 04:53:56;;;;;;;9.77;6.93;;;8.40;56.40;;;;;;5060822;28;20018;-78
2022/03/12 04:56:23;;;;;;;10.43;6.45;;;8.40;56.10;;;;;;5070087;28;20044;-78
2022/03/12 04:58:49;;;;;;;12.23;6.38;;;8.40;56.40;;;;;;5053704;28;20085;-77
2022/03/12 05:01:16;;;;;;;11.93;7.18;;;8.40;56.50;;;;;;5064305;28;20109;-79
2022/03/12 05:03:43;;;;;;;12.40;6.40;;;8.40;56.80;;;;;;5042368;28;20056;-79
2022/03/12 05:06:13;;;;;;;12.23;6.53;;;8.40;57.00;;;;;;5044280;28;20392;-77
2022/03/12 05:08:39;;;;;;;10.40;6.18;;;8.40;56.90;;;;;;5061551;28;20025;-79
2022/03/12 05:11:05;;;;;;;9.02;6.38;;;8.40;57.00;;;;;;5062678;28;20021;-79
2022/03/12 05:13:32;;;;;;;11.55;7.25;;;8.40;57.10;;;;;;5059960;28;20048;-78
2022/03/12 05:16:01;;;;;;;10.65;6.35;;;8.40;57.30;;;;;;5060553;28;20032;-77
2022/03/12 05:18:30;;;;;;;13.50;7.47;;;8.40;57.40;;;;;;5041639;28;20033;-79
2022/03/12 05:20:56;;;;;;;10.88;6.25;;;8.40;57.70;;;;;;5059376;28;20100;-79
2022/03/12 05:23:22;;;;;;;11.77;6.40;;;8.40;57.80;;;;;;5057201;28;20041;-76
2022/03/12 05:25:49;;;;;;;10.30;6.95;;;8.30;58.00;;;;;;5043364;28;20560;-77
2022/03/12 05:28:27;;;;;;;13.18;7.20;;;8.30;58.40;;;;;;5060669;28;20029;-78
2022/03/12 05:30:58;;;;;;;12.77;6.43;;;8.40;58.60;;;;;;5043680;28;20028;-78
2022/03/12 05:33:25;;;;;;;10.93;6.75;;;8.30;58.90;;;;;;5061742;28;20081;-79
2022/03/12 05:35:54;;;;;;;13.68;7.07;;;8.30;59.20;;;;;;5042540;28;20052;-77
2022/03/12 05:38:31;;;;;;;11.90;7.55;;;8.30;59.40;;;;;;5061529;28;20021;-78
2022/03/12 05:40:57;;;;;;;13.60;6.82;;;8.30;59.90;;;;;;5059861;28;20021;-79
2022/03/12 05:43:26;;;;;;;10.95;6.75;;;8.30;60.30;;;;;;5058045;28;20461;-79
2022/03/12 05:45:52;;;;;;;11.55;6.82;;;8.30;60.70;;;;;;5041832;28;20025;-77
2022/03/12 05:48:19;;;;;;;12.07;6.80;;;8.20;61.10;;;;;;5039006;28;20018;-78
2022/03/12 05:50:48;;;;;;;12.52;6.30;;;8.20;61.60;;;;;;5039979;28;20025;-79
2022/03/12 05:53:16;;;;;;;10.90;6.53;;;8.30;62.00;;;;;;5022100;28;20105;-76
2022/03/12 05:55:42;;;;;;;11.05;6.22;;;8.20;62.30;;;;;;5039848;28;20396;-78
2022/03/12 05:58:10;;;;;;;11.27;6.43;;;8.20;62.70;;;;;;5024369;28;20033;-78
2022/03/12 06:00:36;;;;;;;11.77;6.47;;;8.10;63.10;;;;;;5023114;28;20416;-77
2022/03/12 06:03:02;;;;;;;12.15;6.70;;;8.10;63.80;;;;;;5066436;23;20569;-80
2022/03/12 06:05:28;;;;;;;12.80;6.55;;;8.10;64.10;;;;;;5020443;28;20025;-81
2022/03/12 06:07:55;;;;;;;10.80;6.40;;;8.10;64.70;;;;;;5037592;28;20089;-80
2022/03/12 06:10:28;;;;;;;10.43;6.75;;;8.10;65.30;;;;;;5037479;28;20083;-80
2022/03/12 06:12:56;;;;;;;11.40;7.03;;;8.10;65.80;;;;;;5035985;28;20018;-79
2022/03/12 06:15:23;;;;;;;11.57;6.57;;;8.10;66.30;;;;;;5037542;28;20496;-80
2022/03/12 06:17:50;;;;;;;15.35;7.13;;;8.10;66.90;;;;;;5041884;28;20029;-80
2022/03/12 06:20:17;;;;;;;11.77;6.90;;;8.10;67.30;;;;;;5042565;28;20049;-79
2022/03/12 06:22:44;;;;;;;11.38;6.47;;;8.10;67.60;;;;;;5042027;28;20025;-78
2022/03/12 06:25:13;;;;;;;11.57;7.30;;;8.10;68.00;;;;;;5042310;28;20037;-81
2022/03/12 06:27:41;;;;;;;11.15;6.00;;;8.10;68.40;;;;;;5041387;28;20029;-80
2022/03/12 06:30:09;;;;;;;12.18;7.18;;;8.10;68.90;;;;;;5040709;28;20430;-80
2022/03/12 06:32:38;;;;;;;11.50;7.60;;;8.10;69.20;;;;;;5042760;28;20017;-81
2022/03/12 06:35:05;;;;;;;9.35;6.60;;;8.10;69.60;;;;;;5042071;28;20014;-80
2022/03/12 06:37:31;;;;;;;17.42;7.78;;;8.10;70.20;;;;;;5040821;28;20221;-81
2022/03/12 06:39:56;;;;;;;15.32;7.63;;;8.10;70.50;;;;;;5041031;28;20030;-79
2022/03/12 06:42:24;;;;;;;11.75;7.13;;;8.10;70.60;;;;;;5023969;28;20338;-80
2022/03/12 06:44:54;;;;;;;11.50;6.90;;;8.10;70.90;;;;;;5056055;28;20033;-80
2022/03/12 06:47:20;;;;;;;11.98;6.55;;;8.10;71.00;;;;;;5060900;28;20123;-79
2022/03/12 06:49:46;;;;;;;11.90;6.97;;;8.20;71.60;;;;;;5061192;28;20025;-80
2022/03/12 06:52:11;;;;;;;13.00;7.30;;;8.30;71.80;;;;;;5061737;28;20540;-79
2022/03/12 06:54:38;;;;;;;14.50;7.22;;;8.40;71.20;;;;;;5044709;28;20166;-80
2022/03/12 06:57:04;;;;;;;12.57;6.20;;;8.60;70.90;;;;;;5061153;28;20051;-80
2022/03/12 06:59:31;;;;;;;11.95;7.57;;;8.70;69.60;;;;;;5061924;28;20021;-79
2022/03/12 07:01:56;;;;;;;14.73;6.70;;;8.90;69.00;;;;;;5043160;28;20415;-79
2022/03/12 07:04:22;;;;;;;13.30;6.53;;;8.90;68.70;;;;;;5059842;28;20036;-80
2022/03/12 07:06:48;;;;;;;9.07;6.00;;;9.00;68.40;;;;;;5041796;28;20052;-80
2022/03/12 07:09:15;;;;;;;10.68;5.90;;;9.00;68.30;;;;;;5041703;28;20031;-80
2022/03/12 07:11:41;;;;;;;15.82;7.38;;;9.00;68.80;;;;;;5041046;28;20032;-80
2022/03/12 07:14:06;;;;;;;11.95;6.30;;;9.00;69.00;;;;;;5059038;28;20033;-80
2022/03/12 07:16:32;;;;;;;10.52;6.28;;;8.90;69.00;;;;;;5059488;28;20040;-79
2022/03/12 07:18:58;;;;;;;13.70;6.20;;;8.90;69.80;;;;;;5042453;28;20033;-79
2022/03/12 07:21:24;;;;;;;9.90;6.55;;;8.80;70.40;;;;;;5074564;28;20025;-79
2022/03/12 07:23:50;;;;;;;10.93;6.18;;;8.90;70.70;;;;;;5051903;28;20063;-82
2022/03/12 07:26:15;;;;;;;13.50;6.28;;;9.20;70.40;;;;;;5059950;28;20071;-80
2022/03/12 07:28:41;;;;;;;17.05;7.10;;;9.30;70.10;;;;;;5058169;28;20028;-79
2022/03/12 07:31:07;;;;;;;8.70;6.05;;;9.50;70.00;;;;;;5059809;28;20103;-80
2022/03/12 07:33:33;;;;;;;12.40;6.63;;;9.80;69.20;;;;;;5059968;28;20029;-81
2022/03/12 07:35:59;;;;;;;10.55;6.40;;;10.10;68.20;;;;;;5042751;28;20036;-79
2022/03/12 07:38:24;;;;;;;12.07;6.55;;;10.10;67.60;;;;;;5060478;28;20092;-80
2022/03/12 07:40:50;;;;;;;12.60;6.75;;;9.90;68.00;;;;;;5060939;28;20025;-81
2022/03/12 07:43:16;;;;;;;10.50;6.50;;;9.80;69.20;;;;;;5058073;28;20060;-81
2022/03/12 07:45:43;;;;;;;9.85;5.97;;;10.00;69.30;;;;;;5041156;28;20033;-79
2022/03/12 07:48:09;;;;;;;12.07;6.47;;;10.10;68.90;;;;;;5042114;28;20052;-81
2022/03/12 07:50:35;;;;;;;11.50;6.70;;;10.10;69.30;;;;;;5041378;28;20022;-80
2022/03/12 07:53:00;;;;;;;11.75;6.28;;;10.10;69.90;;;;;;5038874;28;20554;-81
2022/03/12 07:55:26;;;;;;;10.57;5.97;;;10.20;70.00;;;;;;5038558;28;20021;-81
2022/03/12 07:57:52;;;;;;;10.35;6.53;;;10.20;69.70;;;;;;5020561;28;20433;-81
2022/03/12 08:00:18;;;;;;;12.77;6.15;;;10.20;69.70;;;;;;5038376;28;20025;-79
2022/03/12 08:02:46;;;;;;;12.27;6.80;;;10.20;70.00;;;;;;5037300;28;20037;-81
2022/03/12 08:05:23;;;;;;;10.65;6.32;;;10.20;70.20;;;;;;5037743;28;20072;-79
2022/03/12 08:07:50;;;;;;;9.73;6.35;;;10.30;70.10;;;;;;5019673;28;20030;-82
2022/03/12 08:10:16;;;;;;;11.52;6.25;;;10.50;69.90;;;;;;5020280;28;20559;-81
2022/03/12 08:12:43;;;;;;;9.80;6.30;;;10.90;68.70;;;;;;5020785;28;20053;-81
2022/03/12 08:15:09;;;;;;;11.75;7.30;;;11.20;68.00;;;;;;5039145;28;20040;-79
2022/03/12 08:17:35;;;;;;;9.95;6.10;;;11.30;67.50;;;;;;5039532;28;20036;-79
2022/03/12 08:20:02;;;;;;;8.30;5.72;;;11.30;67.80;;;;;;5042218;28;20033;-81
2022/03/12 08:22:29;;;;;;;9.40;5.85;;;11.50;67.60;;;;;;5039295;28;20121;-80
2022/03/12 08:24:54;;;;;;;10.38;6.15;;;11.80;67.10;;;;;;5038617;28;20060;-78
2022/03/12 08:27:20;;;;;;;9.30;5.35;;;12.20;66.50;;;;;;5041182;28;20026;-80
2022/03/12 08:29:46;;;;;;;10.50;5.63;;;12.40;65.90;;;;;;5023472;28;20025;-80
2022/03/12 08:32:12;;;;;;;11.77;6.88;;;12.40;65.40;;;;;;5020758;28;20021;-81
2022/03/12 08:34:38;;;;;;;9.52;5.70;;;12.30;65.90;;;;;;5038525;28;20024;-81
2022/03/12 08:37:04;;;;;;;10.35;6.45;;;12.20;66.50;;;;;;5039156;28;20094;-81
2022/03/12 08:39:31;;;;;;;8.15;5.78;;;12.10;67.10;;;;;;5024698;28;20041;-81
2022/03/12 08:41:57;;;;;;;9.68;5.88;;;12.10;68.10;;;;;;5043004;28;20076;-81
2022/03/12 08:44:22;;;;;;;13.65;6.47;;;12.10;68.50;;;;;;5038950;28;20025;-81
2022/03/12 08:46:48;;;;;;;8.95;5.60;;;12.10;68.30;;;;;;5044882;28;20025;-79
2022/03/12 08:49:14;;;;;;;10.07;6.10;;;12.00;69.40;;;;;;5061954;28;20035;-79
2022/03/12 08:51:41;;;;;;;10.18;6.75;;;11.90;69.20;;;;;;5040633;28;20033;-81
2022/03/12 08:54:08;;;;;;;13.07;6.43;;;12.10;68.40;;;;;;5044193;28;20476;-81
2022/03/12 08:56:34;;;;;;;8.63;5.70;;;12.50;68.50;;;;;;5045393;28;20025;-79
2022/03/12 08:59:01;;;;;;;8.30;6.03;;;12.60;68.20;;;;;;5043453;28;20498;-77
2022/03/12 09:01:26;;;;;;;9.35;6.22;;;12.70;67.40;;;;;;5059973;28;20031;-78
2022/03/12 09:03:52;;;;;;;9.98;6.30;;;12.80;67.30;;;;;;5060476;28;20029;-78
2022/03/12 09:06:18;;;;;;;10.60;5.75;;;13.00;66.20;;;;;;5061998;28;20049;-79
2022/03/12 09:08:46;;;;;;;10.45;5.60;;;13.20;65.50;;;;;;5063026;28;20047;-80
2022/03/12 09:11:16;;;;;;;10.40;6.20;;;13.60;64.90;;;;;;5046217;28;20021;-81
2022/03/12 09:13:42;;;;;;;9.80;5.93;;;13.80;64.70;;;;;;5039019;28;20021;-76
2022/03/12 09:16:08;;;;;;;9.95;5.65;;;14.00;64.60;;;;;;5040671;28;20021;-77
2022/03/12 09:18:34;;;;;;;10.40;5.80;;;14.30;64.00;;;;;;5056278;28;20068;-79
2022/03/12 09:21:00;;;;;;;10.27;5.55;;;14.30;64.20;;;;;;5061917;28;20559;-79
2022/03/12 09:23:27;;;;;;;9.20;6.30;;;14.50;63.60;;;;;;5045212;28;20036;-78
2022/03/12 09:25:53;;;;;;;8.63;5.75;;;14.70;63.60;;;;;;5057212;28;20393;-79
2022/03/12 09:28:20;;;;;;;8.32;5.70;;;14.90;62.20;;;;;;5042280;28;20092;-80
2022/03/12 09:30:52;;;;;;;10.32;6.50;;;15.00;62.30;;;;;;5061395;28;20579;-79
2022/03/12 09:33:20;;;;;;;8.68;5.60;;;15.00;62.80;;;;;;5044616;28;20032;-78
2022/03/12 09:35:47;;;;;;;10.82;5.80;;;15.00;64.70;;;;;;5064871;28;20013;-79
2022/03/12 09:38:14;;;;;;;8.80;6.20;;;14.90;64.30;;;;;;5061871;28;20021;-81
2022/03/12 09:40:40;;;;;;;9.77;5.55;;;15.00;65.00;;;;;;5045683;28;20055;-80
2022/03/12 09:43:06;;;;;;;7.63;5.07;;;15.00;64.80;;;;;;5044839;28;20067;-81
2022/03/12 09:45:32;;;;;;;8.05;5.72;;;15.00;65.10;;;;;;5045606;28;20273;-78
2022/03/12 09:47:57;;;;;;;8.77;5.60;;;15.00;66.00;;;;;;5028150;28;20029;-80
2022/03/12 09:50:23;;;;;;;7.85;5.35;;;15.00;65.90;;;;;;5045104;28;20021;-78
2022/03/12 09:52:49;;;;;;;9.32;5.65;;;14.80;66.70;;;;;;5027935;28;20071;-80
2022/03/12 09:55:16;;;;;;;7.90;5.78;;;14.80;66.10;;;;;;5044139;28;20021;-77
2022/03/12 09:57:43;;;;;;;12.98;6.15;;;15.00;66.10;;;;;;5043672;28;20025;-79
2022/03/12 10:00:09;;;;;;;6.97;5.05;;;15.00;65.90;;;;;;5026023;28;20033;-80
2022/03/12 10:02:35;;;;;;;7.75;4.82;;;15.10;66.40;;;;;;5027016;28;20034;-80
2022/03/12 10:05:01;;;;;;;10.15;6.13;;;15.10;66.10;;;;;;5027537;28;20025;-80
2022/03/12 10:07:26;;;;;;;10.25;5.50;;;15.20;66.20;;;;;;5026073;28;20026;-81
2022/03/12 10:09:52;;;;;;;8.85;5.43;;;15.20;66.20;;;;;;5045888;28;20022;-80
2022/03/12 10:12:19;;;;;;;9.07;5.25;;;15.20;66.20;;;;;;5032325;28;20017;-81
2022/03/12 10:14:48;;;;;;;7.25;5.40;;;15.40;65.20;;;;;;5047403;28;20059;-77
2022/03/12 10:17:14;;;;;;;7.60;5.30;;;15.50;64.90;;;;;;5046400;28;20025;-80
2022/03/12 10:19:43;;;;;;;8.38;5.25;;;15.50;65.80;;;;;;5047191;28;20029;-80
2022/03/12 10:22:09;;;;;;;6.63;5.10;;;15.50;64.00;;;;;;5063890;28;20024;-82
2022/03/12 10:24:35;;;;;;;8.40;5.35;;;15.40;63.70;;;;;;5047571;28;20025;-81
2022/03/12 10:27:02;;;;;;;8.07;5.32;;;15.60;64.40;;;;;;5046359;28;20021;-80
2022/03/12 10:29:28;;;;;;;10.20;5.13;;;15.60;63.90;;;;;;5066740;28;20021;-80
2022/03/12 10:31:54;;;;;;;9.57;5.00;;;15.70;63.20;;;;;;5049698;28;20124;-80
2022/03/12 10:34:25;;;;;;;6.32;4.95;;;15.80;63.40;;;;;;5050724;28;20104;-80
2022/03/12 10:36:53;;;;;;;6.70;4.70;;;16.00;63.40;;;;;;5049092;28;20028;-81
2022/03/12 10:39:32;;;;;;;8.35;5.63;;;16.10;63.00;;;;;;5050216;28;20060;-80
2022/03/12 10:42:08;;;;;;;8.73;5.70;;;16.30;62.80;;;;;;5071251;28;20051;-78
2022/03/12 10:44:39;;;;;;;;;;;16.30;63.00;;;;;;5040788;28;20022;-82
2022/03/12 10:47:21;;;;;;;7.95;5.25;;;16.20;62.40;;;;;;5031261;28;19909;-81
2022/03/12 10:50:00;;;;;;;10.13;5.47;;;15.70;62.80;;;;;;5031011;28;20076;-80
2022/03/12 10:52:28;;;;;;;11.43;5.45;;;15.40;64.10;;;;;;5028701;28;20021;-80
2022/03/12 10:54:55;;;;;;;9.05;5.63;;;15.00;65.10;;;;;;5027927;28;20045;-82
2022/03/12 10:57:21;;;;;;;10.10;5.85;;;14.60;66.30;;;;;;5044470;28;20029;-81
2022/03/12 10:59:55;;;;;;;8.07;5.82;;;14.40;67.30;;;;;;5025224;28;20025;-80
2022/03/12 11:02:21;;;;;;;14.18;5.65;;;14.50;68.10;;;;;;5024986;28;20124;-80
2022/03/12 11:04:46;;;;;;;11.05;5.75;;;14.60;68.10;;;;;;5027110;28;20025;-81
2022/03/12 11:07:26;;;;;;;7.65;5.78;;;14.60;67.00;;;;;;5043370;28;20028;-82
2022/03/12 11:09:56;;;;;;;9.30;6.18;;;14.50;67.30;;;;;;5025533;28;20580;-81
2022/03/12 11:12:37;;;;;;;10.80;6.32;;;14.40;67.80;;;;;;5043831;28;20112;-81
2022/03/12 11:15:14;;;;;;;9.68;5.65;;;14.20;68.80;;;;;;5044295;28;20025;-82
2022/03/12 11:17:48;;;;;;;7.90;5.78;;;14.10;68.90;;;;;;5023950;28;20111;-81
2022/03/12 11:20:36;;;;;;;6.25;4.70;;;14.40;68.90;;;;;;5021439;28;20037;-83
2022/03/12 11:23:12;;;;;;;8.13;5.90;;;14.60;67.50;;;;;;5038881;28;20060;-80
2022/03/12 11:25:56;;;;;;;;;;;15.00;66.90;;;;;;5059785;28;20048;-80
2022/03/12 11:28:22;;;;;;;7.53;5.30;;;15.50;66.60;;;;;;5057814;28;20364;-81
2022/03/12 11:30:48;;;;;;;7.95;5.53;;;15.80;65.10;;;;;;5040469;28;20021;-80
2022/03/12 11:33:14;;;;;;;7.50;5.30;;;16.10;64.90;;;;;;5058395;28;20067;-79
2022/03/12 11:35:45;;;;;;;9.13;6.18;;;15.80;63.40;;;;;;5044934;28;20048;-78
2022/03/12 11:38:21;;;;;;;8.52;5.40;;;15.50;64.60;;;;;;5045075;28;20029;-81
2022/03/12 11:40:50;;;;;;;8.07;5.75;;;15.40;65.90;;;;;;5044054;28;20072;-80
2022/03/12 11:43:30;;;;;;;7.50;5.82;;;15.50;65.10;;;;;;5043273;28;20022;-81
2022/03/12 11:45:59;;;;;;;9.40;5.30;;;15.70;65.10;;;;;;5061259;28;20033;-82
2022/03/12 11:48:29;;;;;;;6.97;4.78;;;15.90;64.00;;;;;;5060391;28;20083;-80
2022/03/12 11:50:55;;;;;;;8.20;5.93;;;15.90;64.50;;;;;;5060881;28;20072;-80
2022/03/12 11:53:21;;;;;;;10.10;5.55;;;16.20;63.40;;;;;;5043646;28;20021;-82
2022/03/12 11:55:49;;;;;;;11.05;5.30;;;16.40;63.90;;;;;;5064118;28;20021;-81
2022/03/12 11:58:16;;;;;;;6.68;4.70;;;16.40;62.20;;;;;;5048021;28;20061;-79
2022/03/12 12:00:47;;;;;;;9.02;5.13;;;16.50;63.20;;;;;;5065066;28;20021;-80
2022/03/12 12:03:14;;;;;;;10.27;5.82;;;16.40;62.50;;;;;;5076644;22;20033;-74
2022/03/12 12:05:45;;;;;;;7.97;5.82;;;16.50;61.70;;;;;;5045356;28;20017;-75
2022/03/12 12:08:14;;;;;;;8.18;5.32;;;16.60;63.40;;;;;;5045332;28;20079;-76
2022/03/12 12:10:42;;;;;;;10.57;6.28;;;16.90;62.80;;;;;;5043372;28;20048;-76
2022/03/12 12:13:13;;;;;;;9.23;5.63;;;17.20;61.70;;;;;;5036739;28;20025;-77
2022/03/12 12:15:40;;;;;;;7.05;5.47;;;17.50;59.90;;;;;;5018741;28;20422;-77
2022/03/12 12:18:12;;;;;;;8.48;6.13;;;17.40;59.80;;;;;;5035225;28;20025;-76
2022/03/12 12:20:38;;;;;;;8.95;5.82;;;17.40;61.10;;;;;;5017549;28;20029;-74
2022/03/12 12:23:04;;;;;;;7.40;5.38;;;17.40;59.50;;;;;;5036309;28;20116;-77
2022/03/12 12:25:38;;;;;;;10.55;6.20;;;17.40;60.00;;;;;;5020069;28;20138;-78
2022/03/12 12:28:22;;;;;;;8.10;5.72;;;17.40;60.30;;;;;;5021715;28;20029;-76
2022/03/12 12:30:50;;;;;;;7.38;5.72;;;17.30;60.00;;;;;;5037723;28;20032;-76
2022/03/12 12:33:18;;;;;;;6.90;5.05;;;17.10;61.00;;;;;;5037972;28;20025;-76
2022/03/12 12:36:08;;;;;;;7.43;5.35;;;17.00;61.10;;;;;;5039827;28;20018;-77
2022/03/12 12:38:35;;;;;;;8.60;5.68;;;16.80;61.90;;;;;;5040954;28;20028;-78
2022/03/12 12:41:03;;;;;;;9.25;5.93;;;16.60;61.30;;;;;;5022560;28;20021;-76
2022/03/12 12:43:34;;;;;;;6.88;5.55;;;16.40;62.10;;;;;;5026319;28;20048;-76
2022/03/12 12:46:14;;;;;;;9.65;5.47;;;16.30;63.60;;;;;;5059121;28;20029;-76
2022/03/12 12:48:50;;;;;;;7.30;5.43;;;16.10;63.60;;;;;;5038096;28;20025;-76
2022/03/12 12:51:26;;;;;;;6.15;4.85;;;15.90;63.30;;;;;;5055114;28;20120;-76